createdAt,value
2022-12-17T00:02:04.248Z,46.17
2022-12-17T00:06:24.656Z,46.03
2022-12-17T00:10:44.908Z,47.60
2022-12-17T00:15:05.439Z,48.42
2022-12-17T00:19:25.518Z,44.95
2022-12-17T00:23:46.168Z,46.45
2022-12-17T00:28:06.472Z,44.13
2022-12-17T00:32:28.194Z,44.17
2022-12-17T00:36:48.756Z,41.40
2022-12-17T00:41:10.277Z,43.33
2022-12-17T00:45:30.693Z,40.15
2022-12-17T00:49:51.911Z,44.78
2022-12-17T00:54:12.270Z,46.60
2022-12-17T00:58:33.856Z,45.47
2022-12-17T01:02:54.344Z,44.10
2022-12-17T01:07:14.836Z,44.90
2022-12-17T01:11:35.338Z,43.63
2022-12-17T01:15:56.710Z,44.70
2022-12-17T01:20:17.480Z,48.35
2022-12-17T01:24:37.746Z,48.78
2022-12-17T01:28:59.449Z,41.60
2022-12-17T01:33:25.222Z,41.97
2022-12-17T01:37:45.594Z,44.80
2022-12-17T01:42:06.144Z,44.33
2022-12-17T01:46:27.219Z,45.25
2022-12-17T01:50:52.503Z,46.63
2022-12-17T01:55:13.112Z,45.97
2022-12-17T01:59:36.758Z,46.90
2022-12-17T02:03:59.230Z,42.63
2022-12-17T02:08:43.469Z,45.97
2022-12-17T02:13:11.197Z,47.22
2022-12-17T02:17:38.019Z,47.28
2022-12-17T02:22:01.355Z,46.20
2022-12-17T02:26:30.145Z,45.20
2022-12-17T02:30:52.214Z,45.92
2022-12-17T02:35:13.829Z,46.58
2022-12-17T02:39:33.967Z,48.30
2022-12-17T02:43:55.383Z,45.53
2022-12-17T02:48:15.652Z,45.47
2022-12-17T02:52:39.469Z,43.15
2022-12-17T02:57:00.531Z,47.90
2022-12-17T03:01:21.326Z,48.08
2022-12-17T03:05:45.746Z,45.28
2022-12-17T03:10:06.911Z,43.00
2022-12-17T03:14:27.379Z,42.65
2022-12-17T03:18:48.032Z,44.05
2022-12-17T03:23:08.062Z,41.90
2022-12-17T03:27:28.497Z,41.30
2022-12-17T03:31:49.085Z,43.80
2022-12-17T03:36:12.017Z,45.47
2022-12-17T03:40:32.518Z,42.88
2022-12-17T03:44:53.434Z,43.38
2022-12-17T03:49:13.627Z,43.08
2022-12-17T03:53:34.601Z,44.75
2022-12-17T03:57:54.855Z,44.45
2022-12-17T04:02:16.234Z,46.50
2022-12-17T04:06:36.421Z,41.53
2022-12-17T04:10:56.979Z,40.92
2022-12-17T04:15:17.899Z,40.95
2022-12-17T04:19:38.482Z,45.22
2022-12-17T04:23:58.801Z,40.65
2022-12-17T04:28:19.489Z,40.50
2022-12-17T04:32:40.252Z,40.58
2022-12-17T04:37:00.760Z,39.20
2022-12-17T04:41:20.810Z,38.15
2022-12-17T04:45:41.188Z,37.80
2022-12-17T04:50:01.326Z,40.90
2022-12-17T04:54:21.874Z,37.47
2022-12-17T04:58:41.873Z,38.95
2022-12-17T05:03:02.182Z,37.72
2022-12-17T05:07:22.734Z,38.50
2022-12-17T05:11:43.475Z,34.88
2022-12-17T05:16:04.205Z,40.28
2022-12-17T05:20:25.170Z,35.53
2022-12-17T05:24:45.520Z,36.40
2022-12-17T05:29:07.226Z,37.42
2022-12-17T05:33:29.106Z,37.42
2022-12-17T05:37:50.188Z,37.90
2022-12-17T05:42:10.436Z,36.97
2022-12-17T05:46:31.144Z,35.40
2022-12-17T05:50:51.277Z,35.10
2022-12-17T05:55:11.726Z,37.35
2022-12-17T05:59:31.933Z,35.40
2022-12-17T06:03:53.052Z,39.30
2022-12-17T06:08:21.332Z,39.40
2022-12-17T06:12:41.773Z,40.13
2022-12-17T06:17:02.267Z,37.70
2022-12-17T06:21:22.675Z,38.17
2022-12-17T06:25:47.282Z,40.10
2022-12-17T06:30:08.072Z,37.03
2022-12-17T06:34:28.102Z,37.58
2022-12-17T06:38:48.508Z,36.65
2022-12-17T06:43:15.849Z,37.75
2022-12-17T06:47:36.979Z,39.87
2022-12-17T06:51:57.051Z,38.80
2022-12-17T06:56:18.220Z,36.97
2022-12-17T07:00:38.641Z,40.58
2022-12-17T07:04:59.275Z,39.45
2022-12-17T07:09:20.231Z,37.70
2022-12-17T07:13:40.923Z,40.35
2022-12-17T07:18:01.306Z,36.47
2022-12-17T07:22:21.847Z,37.33
2022-12-17T07:26:43.904Z,43.80
2022-12-17T07:31:04.632Z,40.13
2022-12-17T07:35:25.711Z,39.42
2022-12-17T07:39:46.114Z,40.35
2022-12-17T07:44:06.788Z,38.08
2022-12-17T07:48:27.081Z,37.40
2022-12-17T07:52:58.248Z,38.45
2022-12-17T07:57:18.839Z,40.42
2022-12-17T08:01:39.160Z,36.63
2022-12-17T08:05:59.860Z,39.53
2022-12-17T08:10:19.877Z,38.78
2022-12-17T08:14:40.474Z,40.60
2022-12-17T08:19:01.351Z,37.47
2022-12-17T08:23:23.540Z,37.08
2022-12-17T08:27:43.781Z,34.63
2022-12-17T08:32:04.577Z,34.38
2022-12-17T08:36:24.985Z,37.67
2022-12-17T08:40:45.602Z,37.45
2022-12-17T08:45:06.164Z,37.95
2022-12-17T08:49:26.855Z,38.90
2022-12-17T08:53:49.830Z,38.05
2022-12-17T08:58:15.561Z,38.17
2022-12-17T09:02:35.680Z,40.42
2022-12-17T09:06:56.085Z,35.38
2022-12-17T09:11:18.668Z,35.75
2022-12-17T09:15:38.960Z,35.65
2022-12-17T09:19:59.096Z,38.42
2022-12-17T09:24:19.455Z,38.42
2022-12-17T09:28:39.537Z,39.83
2022-12-17T09:32:59.875Z,39.65
2022-12-17T09:37:21.075Z,39.03
2022-12-17T09:41:46.294Z,39.05
2022-12-17T09:46:12.444Z,39.03
2022-12-17T09:50:35.042Z,39.50
2022-12-17T09:55:10.458Z,36.55
2022-12-17T09:59:39.562Z,39.58
2022-12-17T10:04:03.446Z,37.63
2022-12-17T10:08:26.132Z,40.53
2022-12-17T10:12:46.641Z,34.33
2022-12-17T10:17:11.695Z,39.95
2022-12-17T10:21:32.541Z,38.63
2022-12-17T10:25:54.270Z,38.42
2022-12-17T10:30:14.791Z,39.08
2022-12-17T10:34:37.804Z,38.95
2022-12-17T10:38:59.267Z,38.03
2022-12-17T10:43:19.925Z,35.70
2022-12-17T10:48:03.010Z,33.20
2022-12-17T10:52:49.337Z,36.38
2022-12-17T10:57:11.874Z,36.72
2022-12-17T11:01:43.237Z,38.63
2022-12-17T11:06:04.195Z,39.60
2022-12-17T11:10:32.302Z,39.13
2022-12-17T11:15:03.814Z,39.90
2022-12-17T11:19:30.088Z,36.60
2022-12-17T11:23:53.102Z,35.20
2022-12-17T11:28:23.934Z,36.92
2022-12-17T11:33:13.858Z,36.13
2022-12-17T11:37:38.809Z,36.58
2022-12-17T11:42:14.656Z,39.72
2022-12-17T11:47:14.837Z,40.20
2022-12-17T11:51:59.619Z,41.45
2022-12-17T11:56:34.767Z,38.33
2022-12-17T12:01:02.733Z,41.20
2022-12-17T12:06:20.961Z,40.17
2022-12-17T12:10:51.684Z,37.28
2022-12-17T12:15:39.366Z,35.80
2022-12-17T12:20:08.163Z,34.97
2022-12-17T12:29:08.032Z,34.25
2022-12-17T12:33:48.219Z,35.90
2022-12-17T12:38:09.021Z,36.00
2022-12-17T12:42:44.686Z,35.63
2022-12-17T12:47:25.481Z,36.15
2022-12-17T12:51:49.000Z,37.13
2022-12-17T12:56:09.669Z,35.25
2022-12-17T13:00:51.824Z,36.88
2022-12-17T13:05:23.508Z,36.97
2022-12-17T13:09:35.141Z,37.83
2022-12-17T13:13:55.826Z,33.95
2022-12-17T13:18:07.004Z,34.50
2022-12-17T13:22:11.435Z,33.97
2022-12-17T13:26:39.746Z,35.22
2022-12-17T13:34:58.481Z,35.25
2022-12-17T13:39:08.672Z,35.22
2022-12-17T13:43:19.146Z,38.83
2022-12-17T13:47:24.774Z,39.22
2022-12-17T13:51:32.327Z,35.70
2022-12-17T13:55:34.268Z,34.20
2022-12-17T13:59:36.368Z,32.22
2022-12-17T14:08:03.951Z,34.08
2022-12-17T14:12:22.540Z,33.28
2022-12-17T14:16:24.370Z,45.65
2022-12-17T14:20:30.299Z,52.50
2022-12-17T14:24:32.835Z,47.92
2022-12-17T14:28:37.801Z,44.78
2022-12-17T14:32:43.858Z,43.42
2022-12-17T14:36:46.908Z,39.90
2022-12-17T14:40:48.774Z,45.58
2022-12-17T14:45:00.658Z,44.88
2022-12-17T14:49:05.911Z,43.42
2022-12-17T14:53:27.560Z,45.15
2022-12-17T14:57:29.540Z,42.75
2022-12-17T15:01:31.912Z,41.90
2022-12-17T15:05:35.591Z,49.55
2022-12-17T15:09:37.911Z,43.47
2022-12-17T15:13:40.620Z,41.92
2022-12-17T15:17:42.651Z,36.95
2022-12-17T15:21:44.759Z,37.78
2022-12-17T15:25:48.418Z,34.63
2022-12-17T15:29:50.071Z,37.72
2022-12-17T15:33:52.058Z,36.45
2022-12-17T15:37:53.836Z,37.22
2022-12-17T15:42:14.798Z,39.20
2022-12-17T15:46:17.372Z,44.03
2022-12-17T15:50:19.327Z,46.10
2022-12-17T15:54:21.384Z,45.05
2022-12-17T15:58:22.993Z,47.95
2022-12-17T16:02:25.068Z,47.78
2022-12-17T16:06:26.860Z,47.10
2022-12-17T16:10:29.160Z,43.15
2022-12-17T16:14:30.803Z,46.58
2022-12-17T16:18:33.350Z,46.83
2022-12-17T16:22:35.247Z,49.20
2022-12-17T16:26:38.029Z,47.30
2022-12-17T16:30:40.826Z,47.80
2022-12-17T16:34:43.849Z,46.63
2022-12-17T16:38:47.318Z,46.53
2022-12-17T16:42:49.319Z,49.90
2022-12-17T16:46:52.302Z,53.13
2022-12-17T16:50:54.148Z,49.92
2022-12-17T16:54:56.073Z,46.00
2022-12-17T16:58:58.127Z,47.22
2022-12-17T17:02:59.823Z,45.55
2022-12-17T17:07:01.953Z,46.38
2022-12-17T17:11:21.627Z,46.47
2022-12-17T17:15:23.940Z,48.13
2022-12-17T17:19:25.893Z,46.30
2022-12-17T17:23:28.040Z,46.25
2022-12-17T17:27:29.790Z,46.03
2022-12-17T17:32:08.734Z,47.30
2022-12-17T17:35:57.468Z,45.65
2022-12-17T17:40:03.499Z,43.03
2022-12-17T17:44:08.212Z,41.40
2022-12-17T17:48:10.182Z,45.60
2022-12-17T17:52:12.527Z,46.58
2022-12-17T17:56:18.140Z,45.33
2022-12-17T18:00:19.988Z,46.10
2022-12-17T18:04:24.270Z,50.10
2022-12-17T18:08:29.461Z,45.83
2022-12-17T18:12:49.946Z,43.17
2022-12-17T18:16:52.273Z,39.90
2022-12-17T18:21:09.577Z,42.40
2022-12-17T18:25:11.853Z,44.40
2022-12-17T18:29:20.175Z,42.83
2022-12-17T18:33:22.256Z,43.88
2022-12-17T18:37:24.119Z,44.75
2022-12-17T18:41:45.031Z,40.95
2022-12-17T18:45:46.822Z,39.35
2022-12-17T18:49:48.901Z,41.60
2022-12-17T18:53:51.354Z,39.78
2022-12-17T18:57:53.441Z,41.30
2022-12-17T19:01:56.636Z,46.83
2022-12-17T19:05:59.087Z,39.78
2022-12-17T19:10:01.379Z,37.80
2022-12-17T19:14:03.360Z,36.00
2022-12-17T19:18:05.478Z,36.63
2022-12-17T19:22:08.423Z,39.00
2022-12-17T19:26:17.028Z,36.65
2022-12-17T19:30:19.327Z,42.13
2022-12-17T19:34:21.725Z,39.25
2022-12-17T19:38:24.209Z,38.78
2022-12-17T19:42:31.936Z,38.58
2022-12-17T19:46:37.257Z,42.22
2022-12-17T19:50:39.444Z,39.70
2022-12-17T19:54:41.584Z,41.38
2022-12-17T19:58:45.292Z,42.53
2022-12-17T20:02:47.683Z,38.67
2022-12-17T20:06:50.008Z,36.17
2022-12-17T20:10:51.840Z,37.75
2022-12-17T20:14:53.926Z,38.47
2022-12-17T20:18:58.266Z,37.17
2022-12-17T20:23:00.047Z,36.25
2022-12-17T20:27:02.216Z,35.75
2022-12-17T20:31:06.725Z,35.67
2022-12-17T20:35:09.145Z,35.20
2022-12-17T20:39:12.569Z,37.75
2022-12-17T20:43:14.498Z,34.70
2022-12-17T20:47:16.776Z,39.72
2022-12-17T20:51:24.949Z,41.15
2022-12-17T20:55:31.079Z,41.38
2022-12-17T20:59:33.714Z,32.17
2022-12-17T21:03:36.004Z,39.78
2022-12-17T21:07:37.903Z,36.58
2022-12-17T21:11:41.303Z,36.85
2022-12-17T21:15:49.545Z,39.92
2022-12-17T21:19:51.901Z,38.42
2022-12-17T21:23:55.559Z,37.25
2022-12-17T21:27:57.509Z,37.50
2022-12-17T21:31:59.760Z,40.58
2022-12-17T21:36:07.453Z,42.40
2022-12-17T21:40:10.749Z,43.45
2022-12-17T21:44:15.286Z,40.17
2022-12-17T21:48:17.380Z,43.42
2022-12-17T21:52:19.467Z,42.88
2022-12-17T21:56:22.025Z,45.33
2022-12-17T22:00:25.167Z,46.05
2022-12-17T22:04:27.041Z,48.17
2022-12-17T22:08:29.388Z,50.97
2022-12-17T22:12:50.134Z,51.80
2022-12-17T22:16:52.177Z,49.47
2022-12-17T22:20:59.786Z,48.38
2022-12-17T22:25:06.206Z,52.50
2022-12-17T22:29:09.711Z,50.63
2022-12-17T22:33:35.852Z,48.72
2022-12-17T22:40:02.771Z,45.60
2022-12-17T22:44:31.666Z,48.53
2022-12-17T22:46:36.184Z,48.00
2022-12-17T22:50:48.452Z,50.75
2022-12-17T22:55:01.156Z,47.97
2022-12-17T22:59:03.864Z,51.13
2022-12-17T23:03:06.156Z,49.50
2022-12-17T23:07:08.571Z,48.70
2022-12-17T23:11:13.943Z,46.50
2022-12-17T23:15:15.689Z,51.30
2022-12-17T23:19:18.295Z,50.70
2022-12-17T23:23:20.454Z,47.58
2022-12-17T23:27:22.319Z,48.35
2022-12-17T23:31:26.505Z,40.13
2022-12-17T23:35:28.440Z,42.60
2022-12-17T23:39:30.605Z,46.65
2022-12-17T23:43:33.074Z,43.38
2022-12-17T23:47:35.072Z,42.78
2022-12-17T23:51:36.915Z,41.08
2022-12-17T23:55:39.046Z,45.67
2022-12-17T23:59:40.891Z,44.45
